Sandy Bay Township, Maine
Current Conditions -  °F | °C
As of 5:38 AM on Friday 24 Oct 2014 (Local Time) from CYSC Reporting Station
Overcast Overcast  
Wind Chill: 36°   Ceiling: 1400
Heat Index: 41°   Visibility: 9mi
Dew Point: 39°   Wind: 8mph
Humidity: 93%   Direction: 40°NE
Pressure: 29.8"   Gusts: NA
Location:  45.7142°N, 70.304°W
Report Text: CYSC 240938Z AUTO 04007KT 010V070 9SM OVC014 05/04 A2980 RMK SLP096
Loading
Personal Weather Stations






























Interactive Weather Map
Tropical Storm Tracking
New forecast layout! Learn more

10-Day Weather Forecast

Advertisements
Track Severe Weather on mobile